Brunswick, GA (31523)

9:26 PM EDT on March 26, 2017 (GMT -0400)
Timber Landing | | Change Station

Elev 43 ft 31.19 °N, 81.61 °W | Updated 59 seconds ago

Clear
Clear
65.1 °F
Feels Like 65.1 °F
N
0.0
Wind Variable Wind from North
Gusts 0.7 mph

Today
High -- | Low -- °F
--% Chance of Precip.
Yesterday
High -- | Low -- °F
Precip. -- in
Pressure 30.14 in
Visibility 10.0 miles
Clouds Scattered Clouds 11000 ft
Dew Point 60 °F
Humidity 84%
Rainfall 0.05 in
Snow Depth Not available.
7:22 AM 7:41 PM
Waning Crescent, 2% visible
METAR KBQK 270115Z AUTO 13004KT 10SM SCT110 20/17 A3014 RMK AO2
Pressure 30.14 in
Visibility 10.0 miles
Clouds Scattered Clouds 11000 ft
Dew Point 60 °F
Humidity 84%
Rainfall 0.05 in
Snow Depth Not available.
7:22 AM 7:41 PM
Waning Crescent, 2% visible
METAR KBQK 270115Z AUTO 13004KT 10SM SCT110 20/17 A3014 RMK AO2

Get Severe Weather Alerts

Thanks for signing up!

Be on the lookout for a verification email in your inbox.

You'll start receiving the daily forecast at 8 AM.

×

10-Day Weather Forecast

Almanac

Astronomy

Mar. 26, 2017 Rise Set
Actual Time
Civil Twilight
Nautical Twilight
Astronomical Twilight
Moon
Length of Visible Light
Length of Day
Tomorrow will be .
, % of the Moon is Illuminated

Today's Extremes

State Highs State Lows

Community

WunderPhotos

Upload Photos

1,962,540 photos uploaded!

WunderBlog® & News

Nearby

Air Quality

  Air Quality AQ Index Pollutant
Not available.

Snow Depth

Station Depth Elevation

Earthquake Activity

City Distance Mag. Time & Date
Minimum magnitude displayed is 2.5.

Earthquake Activity

City Distance Mag. Time & Date
Minimum magnitude displayed is 2.5.

Coastal Water Temperatures

Place Temperature

Stations

Nearby Weather Stations

Station Location Temp. Windchill Dew Point Humidity Wind Precip. Elev Updated Type
                   

Watches & Warnings

There are currently no watches in effect.